sensor_id;sensor_type;location;lat;lon;timestamp;pressure;altitude;pressure_sealevel;temperature;humidity
1472;BME280;963;42.644;23.336;2023-06-24T00:01:35;94201.72;;;22.80;72.23
1472;BME280;963;42.644;23.336;2023-06-24T00:04:01;94218.16;;;22.82;72.42
1472;BME280;963;42.644;23.336;2023-06-24T00:06:27;94215.56;;;22.78;71.93
1472;BME280;963;42.644;23.336;2023-06-24T00:08:53;94209.56;;;22.87;72.40
1472;BME280;963;42.644;23.336;2023-06-24T00:11:26;94188.44;;;22.76;72.18
1472;BME280;963;42.644;23.336;2023-06-24T00:13:51;94202.47;;;22.93;72.16
1472;BME280;963;42.644;23.336;2023-06-24T00:16:17;94209.69;;;22.70;73.30
1472;BME280;963;42.644;23.336;2023-06-24T00:18:42;94197.59;;;22.02;75.67
1472;BME280;963;42.644;23.336;2023-06-24T00:21:08;94198.25;;;22.06;75.82
1472;BME280;963;42.644;23.336;2023-06-24T00:23:33;94194.81;;;21.93;76.50
1472;BME280;963;42.644;23.336;2023-06-24T00:26:01;94202.53;;;22.17;75.83
1472;BME280;963;42.644;23.336;2023-06-24T00:28:27;94211.25;;;22.33;74.62
1472;BME280;963;42.644;23.336;2023-06-24T00:30:53;94211.66;;;22.32;74.59
1472;BME280;963;42.644;23.336;2023-06-24T00:33:18;94213.59;;;22.31;74.84
1472;BME280;963;42.644;23.336;2023-06-24T00:35:45;94201.16;;;22.12;75.26
1472;BME280;963;42.644;23.336;2023-06-24T00:38:10;94193.22;;;22.08;75.39
1472;BME280;963;42.644;23.336;2023-06-24T00:40:37;94218.41;;;22.11;75.60
1472;BME280;963;42.644;23.336;2023-06-24T00:43:03;94205.50;;;21.80;77.07
1472;BME280;963;42.644;23.336;2023-06-24T00:45:29;94211.41;;;22.01;76.20
1472;BME280;963;42.644;23.336;2023-06-24T00:48:00;94201.22;;;21.83;77.07
1472;BME280;963;42.644;23.336;2023-06-24T00:50:26;94200.63;;;22.04;76.60
1472;BME280;963;42.644;23.336;2023-06-24T00:52:51;94201.69;;;22.20;75.79
1472;BME280;963;42.644;23.336;2023-06-24T00:55:18;94184.88;;;22.32;75.55
1472;BME280;963;42.644;23.336;2023-06-24T00:57:47;94203.94;;;22.46;74.70
1472;BME280;963;42.644;23.336;2023-06-24T01:00:18;94196.84;;;22.53;74.73
1472;BME280;963;42.644;23.336;2023-06-24T01:02:46;94201.44;;;22.52;74.83
1472;BME280;963;42.644;23.336;2023-06-24T01:05:12;94199.75;;;22.07;76.47
1472;BME280;963;42.644;23.336;2023-06-24T01:07:38;94212.16;;;22.01;76.36
1472;BME280;963;42.644;23.336;2023-06-24T01:10:05;94174.22;;;21.90;76.93
1472;BME280;963;42.644;23.336;2023-06-24T01:12:33;94177.22;;;21.92;77.32
1472;BME280;963;42.644;23.336;2023-06-24T01:15:00;94191.50;;;22.02;77.63
1472;BME280;963;42.644;23.336;2023-06-24T01:17:44;94192.34;;;22.24;77.09
1472;BME280;963;42.644;23.336;2023-06-24T01:25:55;94186.78;;;22.19;77.49
1472;BME280;963;42.644;23.336;2023-06-24T01:37:08;94180.69;;;22.05;75.39
1472;BME280;963;42.644;23.336;2023-06-24T01:39:41;94173.06;;;22.17;75.02
1472;BME280;963;42.644;23.336;2023-06-24T01:42:11;94178.53;;;22.26;74.45
1472;BME280;963;42.644;23.336;2023-06-24T01:44:40;94187.53;;;22.32;74.64
1472;BME280;963;42.644;23.336;2023-06-24T01:47:07;94201.91;;;22.38;75.08
1472;BME280;963;42.644;23.336;2023-06-24T01:49:39;94223.34;;;22.38;75.61
1472;BME280;963;42.644;23.336;2023-06-24T01:52:08;94204.47;;;22.41;75.32
1472;BME280;963;42.644;23.336;2023-06-24T01:54:35;94202.00;;;22.34;75.23
1472;BME280;963;42.644;23.336;2023-06-24T01:57:03;94215.63;;;22.40;75.86
1472;BME280;963;42.644;23.336;2023-06-24T01:59:31;94233.53;;;22.43;75.68
1472;BME280;963;42.644;23.336;2023-06-24T02:01:57;94205.13;;;22.33;75.95
1472;BME280;963;42.644;23.336;2023-06-24T02:04:24;94230.09;;;22.42;76.87
1472;BME280;963;42.644;23.336;2023-06-24T02:06:51;94226.34;;;22.40;76.71
1472;BME280;963;42.644;23.336;2023-06-24T02:09:19;94215.84;;;22.33;77.49
1472;BME280;963;42.644;23.336;2023-06-24T02:11:46;94229.25;;;22.33;77.55
1472;BME280;963;42.644;23.336;2023-06-24T02:14:12;94253.69;;;22.35;77.75
1472;BME280;963;42.644;23.336;2023-06-24T02:16:40;94227.97;;;22.37;77.55
1472;BME280;963;42.644;23.336;2023-06-24T02:19:08;94205.66;;;22.15;77.31
1472;BME280;963;42.644;23.336;2023-06-24T02:21:35;94220.75;;;22.22;77.38
1472;BME280;963;42.644;23.336;2023-06-24T02:24:02;94230.94;;;22.27;77.34
1472;BME280;963;42.644;23.336;2023-06-24T02:26:28;94232.34;;;22.19;77.92
1472;BME280;963;42.644;23.336;2023-06-24T02:28:54;94257.75;;;22.14;77.81
1472;BME280;963;42.644;23.336;2023-06-24T02:31:20;94249.28;;;22.15;78.02
1472;BME280;963;42.644;23.336;2023-06-24T02:33:45;94250.66;;;22.20;78.06
1472;BME280;963;42.644;23.336;2023-06-24T02:36:11;94272.84;;;22.21;77.56
1472;BME280;963;42.644;23.336;2023-06-24T02:38:37;94269.31;;;22.24;77.67
1472;BME280;963;42.644;23.336;2023-06-24T02:41:02;94269.31;;;22.24;77.79
1472;BME280;963;42.644;23.336;2023-06-24T02:43:29;94275.00;;;22.26;77.45
1472;BME280;963;42.644;23.336;2023-06-24T02:45:55;94270.59;;;22.19;77.23
1472;BME280;963;42.644;23.336;2023-06-24T02:48:20;94279.06;;;22.18;77.93
1472;BME280;963;42.644;23.336;2023-06-24T02:50:47;94271.56;;;22.12;78.22
1472;BME280;963;42.644;23.336;2023-06-24T02:53:14;94275.09;;;22.09;77.89
1472;BME280;963;42.644;23.336;2023-06-24T02:55:40;94259.63;;;22.01;78.42
1472;BME280;963;42.644;23.336;2023-06-24T02:58:07;94292.34;;;22.08;78.48
1472;BME280;963;42.644;23.336;2023-06-24T03:00:34;94280.47;;;22.09;77.92
1472;BME280;963;42.644;23.336;2023-06-24T03:03:04;94290.22;;;22.03;78.14
1472;BME280;963;42.644;23.336;2023-06-24T03:05:31;94293.09;;;22.09;77.74
1472;BME280;963;42.644;23.336;2023-06-24T03:07:58;94277.22;;;22.02;77.88
1472;BME280;963;42.644;23.336;2023-06-24T03:10:24;94273.34;;;22.03;78.15
1472;BME280;963;42.644;23.336;2023-06-24T03:12:51;94293.97;;;22.06;77.60
1472;BME280;963;42.644;23.336;2023-06-24T03:15:16;94273.56;;;21.96;77.65
1472;BME280;963;42.644;23.336;2023-06-24T03:17:42;94267.50;;;22.08;77.65
1472;BME280;963;42.644;23.336;2023-06-24T03:20:08;94265.09;;;21.97;76.87
1472;BME280;963;42.644;23.336;2023-06-24T03:22:33;94272.22;;;22.17;76.71
1472;BME280;963;42.644;23.336;2023-06-24T03:24:59;94275.09;;;22.22;77.14
1472;BME280;963;42.644;23.336;2023-06-24T03:27:24;94283.38;;;22.28;76.86
1472;BME280;963;42.644;23.336;2023-06-24T03:29:50;94283.28;;;22.31;77.67
1472;BME280;963;42.644;23.336;2023-06-24T03:32:15;94292.41;;;22.34;77.22
1472;BME280;963;42.644;23.336;2023-06-24T03:34:41;94308.81;;;22.36;78.02
1472;BME280;963;42.644;23.336;2023-06-24T03:37:06;94304.94;;;22.37;77.77
1472;BME280;963;42.644;23.336;2023-06-24T03:39:31;94309.22;;;22.34;78.17
1472;BME280;963;42.644;23.336;2023-06-24T03:41:57;94308.03;;;22.35;78.08
1472;BME280;963;42.644;23.336;2023-06-24T03:44:22;94316.84;;;22.36;78.13
1472;BME280;963;42.644;23.336;2023-06-24T03:46:48;94305.97;;;22.27;78.21
1472;BME280;963;42.644;23.336;2023-06-24T03:49:13;94323.06;;;22.33;78.11
1472;BME280;963;42.644;23.336;2023-06-24T03:51:39;94326.81;;;22.35;78.49
1472;BME280;963;42.644;23.336;2023-06-24T03:54:04;94344.63;;;22.42;78.22
1472;BME280;963;42.644;23.336;2023-06-24T03:56:30;94318.97;;;22.41;77.40
1472;BME280;963;42.644;23.336;2023-06-24T03:58:55;94310.41;;;22.46;77.67
1472;BME280;963;42.644;23.336;2023-06-24T04:01:20;94327.66;;;22.58;77.58
1472;BME280;963;42.644;23.336;2023-06-24T04:03:46;94345.16;;;22.62;77.73
1472;BME280;963;42.644;23.336;2023-06-24T04:06:12;94320.28;;;22.62;77.15
1472;BME280;963;42.644;23.336;2023-06-24T04:08:37;94313.63;;;22.66;77.08
1472;BME280;963;42.644;23.336;2023-06-24T04:11:05;94317.72;;;22.71;76.84
1472;BME280;963;42.644;23.336;2023-06-24T04:16:00;94323.59;;;22.78;76.28
1472;BME280;963;42.644;23.336;2023-06-24T04:18:25;94331.34;;;22.76;76.88
1472;BME280;963;42.644;23.336;2023-06-24T04:20:51;94330.16;;;22.77;76.59
1472;BME280;963;42.644;23.336;2023-06-24T04:23:16;94317.91;;;22.76;76.35
1472;BME280;963;42.644;23.336;2023-06-24T04:25:42;94321.34;;;22.77;76.08
1472;BME280;963;42.644;23.336;2023-06-24T04:28:08;94306.00;;;22.65;76.26
1472;BME280;963;42.644;23.336;2023-06-24T04:30:33;94315.56;;;22.78;75.74
1472;BME280;963;42.644;23.336;2023-06-24T04:33:00;94297.22;;;22.52;76.90
1472;BME280;963;42.644;23.336;2023-06-24T04:35:26;94316.09;;;22.48;78.25
1472;BME280;963;42.644;23.336;2023-06-24T04:37:51;94300.44;;;22.59;76.93
1472;BME280;963;42.644;23.336;2023-06-24T04:40:17;94306.44;;;22.63;76.94
1472;BME280;963;42.644;23.336;2023-06-24T04:42:44;94318.34;;;22.62;76.11
1472;BME280;963;42.644;23.336;2023-06-24T04:45:09;94300.00;;;22.61;76.15
1472;BME280;963;42.644;23.336;2023-06-24T04:47:35;94298.19;;;22.70;76.03
1472;BME280;963;42.644;23.336;2023-06-24T04:50:01;94298.28;;;22.80;75.42
1472;BME280;963;42.644;23.336;2023-06-24T04:52:27;94304.84;;;22.78;75.79
1472;BME280;963;42.644;23.336;2023-06-24T04:54:52;94296.91;;;22.88;75.58
1472;BME280;963;42.644;23.336;2023-06-24T04:57:28;94309.34;;;22.82;75.60
1472;BME280;963;42.644;23.336;2023-06-24T04:59:55;94301.09;;;22.89;75.96
1472;BME280;963;42.644;23.336;2023-06-24T05:02:20;94311.47;;;23.12;74.34
1472;BME280;963;42.644;23.336;2023-06-24T05:04:46;94305.59;;;23.04;75.19
1472;BME280;963;42.644;23.336;2023-06-24T05:07:11;94307.56;;;23.26;74.42
1472;BME280;963;42.644;23.336;2023-06-24T05:09:37;94295.94;;;23.29;74.24
1472;BME280;963;42.644;23.336;2023-06-24T05:12:04;94316.75;;;23.37;74.34
1472;BME280;963;42.644;23.336;2023-06-24T05:14:30;94317.75;;;23.31;74.80
1472;BME280;963;42.644;23.336;2023-06-24T05:16:55;94319.84;;;23.49;73.36
1472;BME280;963;42.644;23.336;2023-06-24T05:19:20;94326.16;;;23.55;72.80
1472;BME280;963;42.644;23.336;2023-06-24T05:21:46;94333.00;;;23.68;72.43
1472;BME280;963;42.644;23.336;2023-06-24T05:24:11;94309.66;;;23.56;72.44
1472;BME280;963;42.644;23.336;2023-06-24T05:26:37;94297.72;;;23.57;72.42
1472;BME280;963;42.644;23.336;2023-06-24T05:29:02;94317.19;;;23.70;72.17
1472;BME280;963;42.644;23.336;2023-06-24T05:31:28;94301.66;;;23.65;72.06
1472;BME280;963;42.644;23.336;2023-06-24T05:33:54;94299.09;;;23.62;70.74
1472;BME280;963;42.644;23.336;2023-06-24T05:36:19;94321.00;;;23.60;70.36
1472;BME280;963;42.644;23.336;2023-06-24T05:38:44;94301.81;;;23.49;71.19
1472;BME280;963;42.644;23.336;2023-06-24T05:41:10;94312.97;;;23.60;70.80
1472;BME280;963;42.644;23.336;2023-06-24T05:43:35;94310.91;;;23.64;70.97
1472;BME280;963;42.644;23.336;2023-06-24T05:46:00;94302.78;;;23.77;70.62
1472;BME280;963;42.644;23.336;2023-06-24T05:48:26;94305.97;;;23.85;70.99
1472;BME280;963;42.644;23.336;2023-06-24T05:50:51;94297.22;;;23.93;70.51
1472;BME280;963;42.644;23.336;2023-06-24T05:53:17;94305.34;;;24.02;69.72
1472;BME280;963;42.644;23.336;2023-06-24T05:55:42;94299.13;;;24.15;69.29
1472;BME280;963;42.644;23.336;2023-06-24T05:58:07;94312.03;;;24.20;69.41
1472;BME280;963;42.644;23.336;2023-06-24T06:00:33;94303.44;;;24.12;69.58
1472;BME280;963;42.644;23.336;2023-06-24T06:02:58;94300.44;;;23.79;70.11
1472;BME280;963;42.644;23.336;2023-06-24T06:05:24;94301.16;;;24.01;70.14
1472;BME280;963;42.644;23.336;2023-06-24T06:07:49;94294.31;;;24.10;69.38
1472;BME280;963;42.644;23.336;2023-06-24T06:10:14;94294.31;;;24.10;69.94
1472;BME280;963;42.644;23.336;2023-06-24T06:12:43;94294.63;;;24.12;69.70
1472;BME280;963;42.644;23.336;2023-06-24T06:15:09;94271.00;;;24.07;70.07
1472;BME280;963;42.644;23.336;2023-06-24T06:17:34;94286.84;;;24.05;69.99
1472;BME280;963;42.644;23.336;2023-06-24T06:20:00;94288.28;;;23.75;70.16
1472;BME280;963;42.644;23.336;2023-06-24T06:22:25;94283.56;;;24.10;69.25
1472;BME280;963;42.644;23.336;2023-06-24T06:24:50;94291.56;;;24.22;69.17
1472;BME280;963;42.644;23.336;2023-06-24T06:27:16;94276.69;;;24.09;68.95
1472;BME280;963;42.644;23.336;2023-06-24T06:29:44;94301.44;;;24.25;69.45
1472;BME280;963;42.644;23.336;2023-06-24T06:32:10;94291.31;;;24.08;70.98
1472;BME280;963;42.644;23.336;2023-06-24T06:34:35;94281.25;;;24.21;70.36
1472;BME280;963;42.644;23.336;2023-06-24T06:37:02;94293.88;;;24.33;69.73
1472;BME280;963;42.644;23.336;2023-06-24T06:39:27;94284.94;;;24.36;68.64
1472;BME280;963;42.644;23.336;2023-06-24T06:41:52;94297.59;;;24.05;69.83
1472;BME280;963;42.644;23.336;2023-06-24T06:44:18;94299.50;;;24.26;69.24
1472;BME280;963;42.644;23.336;2023-06-24T06:46:43;94302.28;;;24.44;68.64
1472;BME280;963;42.644;23.336;2023-06-24T06:49:08;94326.81;;;24.46;68.61
1472;BME280;963;42.644;23.336;2023-06-24T06:51:34;94300.72;;;24.56;68.68
1472;BME280;963;42.644;23.336;2023-06-24T06:54:00;94301.19;;;24.63;68.34
1472;BME280;963;42.644;23.336;2023-06-24T06:56:25;94300.78;;;24.74;68.86
1472;BME280;963;42.644;23.336;2023-06-24T06:58:51;94289.59;;;24.85;67.85
1472;BME280;963;42.644;23.336;2023-06-24T07:01:17;94299.56;;;25.06;66.93
1472;BME280;963;42.644;23.336;2023-06-24T07:03:43;94312.56;;;25.17;67.01
1472;BME280;963;42.644;23.336;2023-06-24T07:06:08;94293.31;;;25.28;66.04
1472;BME280;963;42.644;23.336;2023-06-24T07:08:34;94291.47;;;25.06;67.27
1472;BME280;963;42.644;23.336;2023-06-24T07:11:01;94301.69;;;25.30;66.38
1472;BME280;963;42.644;23.336;2023-06-24T07:13:26;94304.38;;;25.30;66.93
1472;BME280;963;42.644;23.336;2023-06-24T07:15:51;94316.81;;;25.45;66.29
1472;BME280;963;42.644;23.336;2023-06-24T07:18:17;94319.78;;;25.56;66.18
1472;BME280;963;42.644;23.336;2023-06-24T07:20:42;94298.09;;;25.60;66.92
1472;BME280;963;42.644;23.336;2023-06-24T07:23:08;94310.09;;;25.77;66.06
1472;BME280;963;42.644;23.336;2023-06-24T07:25:33;94298.44;;;25.80;65.76
1472;BME280;963;42.644;23.336;2023-06-24T07:27:59;94309.63;;;25.88;65.46
1472;BME280;963;42.644;23.336;2023-06-24T07:30:25;94307.69;;;25.98;64.70
1472;BME280;963;42.644;23.336;2023-06-24T07:32:50;94306.34;;;26.02;64.35
1472;BME280;963;42.644;23.336;2023-06-24T07:35:16;94313.06;;;25.98;64.38
1472;BME280;963;42.644;23.336;2023-06-24T07:37:41;94292.56;;;25.91;64.53
1472;BME280;963;42.644;23.336;2023-06-24T07:40:07;94299.13;;;25.99;65.05
1472;BME280;963;42.644;23.336;2023-06-24T07:42:33;94308.16;;;25.87;65.48
1472;BME280;963;42.644;23.336;2023-06-24T07:44:59;94301.84;;;26.08;64.55
1472;BME280;963;42.644;23.336;2023-06-24T07:47:24;94305.41;;;26.14;63.93
1472;BME280;963;42.644;23.336;2023-06-24T07:49:51;94305.31;;;25.81;65.73
1472;BME280;963;42.644;23.336;2023-06-24T07:52:16;94305.59;;;25.93;65.70
1472;BME280;963;42.644;23.336;2023-06-24T07:54:42;94307.41;;;25.86;66.05
1472;BME280;963;42.644;23.336;2023-06-24T07:57:08;94308.88;;;26.06;65.09
1472;BME280;963;42.644;23.336;2023-06-24T07:59:33;94304.66;;;26.14;65.03
1472;BME280;963;42.644;23.336;2023-06-24T08:01:58;94306.44;;;26.26;64.82
1472;BME280;963;42.644;23.336;2023-06-24T08:04:24;94314.06;;;26.28;64.80
1472;BME280;963;42.644;23.336;2023-06-24T08:06:49;94308.50;;;26.31;65.50
1472;BME280;963;42.644;23.336;2023-06-24T08:09:16;94312.84;;;26.47;63.62
1472;BME280;963;42.644;23.336;2023-06-24T08:11:42;94294.72;;;26.47;63.31
1472;BME280;963;42.644;23.336;2023-06-24T08:14:07;94296.34;;;26.54;62.78
1472;BME280;963;42.644;23.336;2023-06-24T08:16:33;94300.84;;;26.48;63.52
1472;BME280;963;42.644;23.336;2023-06-24T08:18:58;94317.22;;;26.35;63.70
1472;BME280;963;42.644;23.336;2023-06-24T08:21:24;94315.72;;;26.25;64.22
1472;BME280;963;42.644;23.336;2023-06-24T08:23:49;94302.84;;;26.20;65.40
1472;BME280;963;42.644;23.336;2023-06-24T08:26:15;94293.38;;;26.43;65.39
1472;BME280;963;42.644;23.336;2023-06-24T08:28:41;94298.25;;;26.63;64.16
1472;BME280;963;42.644;23.336;2023-06-24T08:31:06;94300.59;;;26.70;63.62
1472;BME280;963;42.644;23.336;2023-06-24T08:33:32;94305.69;;;26.77;63.59
1472;BME280;963;42.644;23.336;2023-06-24T08:35:57;94290.19;;;26.87;63.22
1472;BME280;963;42.644;23.336;2023-06-24T08:38:23;94296.91;;;26.91;62.54
1472;BME280;963;42.644;23.336;2023-06-24T08:40:49;94295.31;;;26.85;62.86
1472;BME280;963;42.644;23.336;2023-06-24T08:43:15;94299.63;;;26.91;62.80
1472;BME280;963;42.644;23.336;2023-06-24T08:45:40;94285.81;;;26.98;63.37
1472;BME280;963;42.644;23.336;2023-06-24T08:48:05;94281.53;;;27.06;63.17
1472;BME280;963;42.644;23.336;2023-06-24T08:50:35;94281.78;;;27.18;63.43
1472;BME280;963;42.644;23.336;2023-06-24T08:53:03;94277.59;;;27.17;62.43
1472;BME280;963;42.644;23.336;2023-06-24T08:55:32;94282.47;;;27.27;61.94
1472;BME280;963;42.644;23.336;2023-06-24T08:58:00;94289.19;;;27.32;61.54
1472;BME280;963;42.644;23.336;2023-06-24T09:00:26;94273.38;;;27.39;61.19
1472;BME280;963;42.644;23.336;2023-06-24T09:02:52;94277.34;;;27.53;60.83
1472;BME280;963;42.644;23.336;2023-06-24T09:05:17;94274.13;;;27.40;60.19
1472;BME280;963;42.644;23.336;2023-06-24T09:07:43;94272.31;;;27.61;59.53
1472;BME280;963;42.644;23.336;2023-06-24T09:10:09;94270.31;;;27.47;60.79
1472;BME280;963;42.644;23.336;2023-06-24T09:12:34;94279.13;;;27.56;60.52
1472;BME280;963;42.644;23.336;2023-06-24T09:15:00;94276.63;;;27.67;60.12
1472;BME280;963;42.644;23.336;2023-06-24T09:17:26;94282.06;;;27.82;59.18
1472;BME280;963;42.644;23.336;2023-06-24T09:19:52;94268.47;;;27.91;58.56
1472;BME280;963;42.644;23.336;2023-06-24T09:22:18;94272.19;;;27.94;58.29
1472;BME280;963;42.644;23.336;2023-06-24T09:24:48;94272.53;;;27.87;58.39
1472;BME280;963;42.644;23.336;2023-06-24T09:27:14;94302.38;;;27.78;58.49
1472;BME280;963;42.644;23.336;2023-06-24T09:29:41;94268.81;;;27.84;58.85
1472;BME280;963;42.644;23.336;2023-06-24T09:32:07;94286.00;;;27.96;58.52
1472;BME280;963;42.644;23.336;2023-06-24T09:34:33;94278.34;;;28.09;59.55
1472;BME280;963;42.644;23.336;2023-06-24T09:36:59;94282.25;;;28.23;58.13
1472;BME280;963;42.644;23.336;2023-06-24T09:39:26;94285.09;;;28.28;58.60
1472;BME280;963;42.644;23.336;2023-06-24T09:41:59;94288.13;;;28.21;57.99
1472;BME280;963;42.644;23.336;2023-06-24T09:44:29;94285.66;;;28.32;58.08
1472;BME280;963;42.644;23.336;2023-06-24T09:46:55;94269.97;;;28.37;57.62
1472;BME280;963;42.644;23.336;2023-06-24T09:49:22;94268.09;;;28.43;58.15
1472;BME280;963;42.644;23.336;2023-06-24T09:51:49;94273.13;;;28.50;55.85
1472;BME280;963;42.644;23.336;2023-06-24T09:54:16;94283.94;;;28.50;55.37
1472;BME280;963;42.644;23.336;2023-06-24T09:56:49;94274.81;;;28.47;55.71
1472;BME280;963;42.644;23.336;2023-06-24T09:59:17;94274.59;;;28.66;55.89
1472;BME280;963;42.644;23.336;2023-06-24T10:01:52;94257.34;;;28.83;55.49
1472;BME280;963;42.644;23.336;2023-06-24T10:04:19;94254.34;;;28.96;55.16
1472;BME280;963;42.644;23.336;2023-06-24T10:06:45;94262.16;;;29.09;54.67
1472;BME280;963;42.644;23.336;2023-06-24T10:09:11;94249.84;;;29.08;54.72
1472;BME280;963;42.644;23.336;2023-06-24T10:11:39;94244.81;;;29.01;54.92
1472;BME280;963;42.644;23.336;2023-06-24T10:14:04;94244.69;;;29.10;55.51
1472;BME280;963;42.644;23.336;2023-06-24T10:16:30;94237.44;;;29.21;53.51
1472;BME280;963;42.644;23.336;2023-06-24T10:19:02;94222.59;;;29.17;52.07
1472;BME280;963;42.644;23.336;2023-06-24T10:21:51;94232.22;;;29.38;52.74
1472;BME280;963;42.644;23.336;2023-06-24T10:27:07;94231.13;;;29.50;51.75
1472;BME280;963;42.644;23.336;2023-06-24T10:29:35;94221.44;;;29.23;52.21
1472;BME280;963;42.644;23.336;2023-06-24T10:32:06;94206.34;;;29.37;50.93
1472;BME280;963;42.644;23.336;2023-06-24T10:34:40;94196.25;;;29.17;51.63
1472;BME280;963;42.644;23.336;2023-06-24T10:37:18;94204.69;;;29.25;50.88
1472;BME280;963;42.644;23.336;2023-06-24T10:42:29;94192.31;;;29.65;52.42
1472;BME280;963;42.644;23.336;2023-06-24T10:44:59;94184.13;;;29.85;51.97
1472;BME280;963;42.644;23.336;2023-06-24T10:47:26;94186.03;;;30.05;52.03
1472;BME280;963;42.644;23.336;2023-06-24T10:49:52;94167.63;;;30.14;50.96
1472;BME280;963;42.644;23.336;2023-06-24T10:52:19;94162.78;;;30.30;51.74
1472;BME280;963;42.644;23.336;2023-06-24T10:54:49;94165.81;;;30.43;50.55
1472;BME280;963;42.644;23.336;2023-06-24T10:57:15;94174.09;;;30.60;49.94
1472;BME280;963;42.644;23.336;2023-06-24T11:02:09;94169.91;;;30.64;48.38
1472;BME280;963;42.644;23.336;2023-06-24T11:04:48;94167.69;;;30.63;47.92
1472;BME280;963;42.644;23.336;2023-06-24T11:07:16;94159.94;;;30.50;48.84
1472;BME280;963;42.644;23.336;2023-06-24T11:09:42;94162.19;;;30.52;47.83
1472;BME280;963;42.644;23.336;2023-06-24T11:12:09;94167.69;;;30.63;47.46
1472;BME280;963;42.644;23.336;2023-06-24T11:14:36;94152.75;;;30.47;47.66
1472;BME280;963;42.644;23.336;2023-06-24T11:17:03;94153.53;;;30.53;47.81
1472;BME280;963;42.644;23.336;2023-06-24T11:19:29;94164.53;;;30.75;47.19
1472;BME280;963;42.644;23.336;2023-06-24T11:21:59;94159.16;;;30.87;46.48
1472;BME280;963;42.644;23.336;2023-06-24T11:24:26;94158.94;;;30.96;45.97
1472;BME280;963;42.644;23.336;2023-06-24T11:26:51;94151.56;;;31.02;46.71
1472;BME280;963;42.644;23.336;2023-06-24T11:29:17;94158.59;;;31.31;46.14
1472;BME280;963;42.644;23.336;2023-06-24T11:31:44;94158.38;;;31.46;46.11
1472;BME280;963;42.644;23.336;2023-06-24T11:34:10;94171.38;;;31.19;45.65
1472;BME280;963;42.644;23.336;2023-06-24T11:36:36;94159.06;;;31.24;46.73
1472;BME280;963;42.644;23.336;2023-06-24T11:39:01;94169.28;;;30.86;45.73
1472;BME280;963;42.644;23.336;2023-06-24T11:41:27;94165.78;;;30.80;45.93
1472;BME280;963;42.644;23.336;2023-06-24T11:43:53;94154.16;;;30.74;44.96
1472;BME280;963;42.644;23.336;2023-06-24T11:48:51;94157.19;;;30.44;45.16
1472;BME280;963;42.644;23.336;2023-06-24T11:51:16;94141.50;;;30.60;45.46
1472;BME280;963;42.644;23.336;2023-06-24T11:53:43;94143.06;;;30.35;45.77
1472;BME280;963;42.644;23.336;2023-06-24T11:56:09;94149.78;;;30.45;45.34
1472;BME280;963;42.644;23.336;2023-06-24T11:58:35;94143.13;;;30.46;44.31
1472;BME280;963;42.644;23.336;2023-06-24T12:01:01;94119.41;;;30.41;45.58
1472;BME280;963;42.644;23.336;2023-06-24T12:03:28;94110.78;;;30.42;43.68
1472;BME280;963;42.644;23.336;2023-06-24T12:05:54;94109.72;;;30.29;45.58
1472;BME280;963;42.644;23.336;2023-06-24T12:08:19;94107.78;;;30.35;45.36
1472;BME280;963;42.644;23.336;2023-06-24T12:10:45;94093.47;;;30.34;46.29
1472;BME280;963;42.644;23.336;2023-06-24T12:13:11;94087.63;;;30.04;46.74
1472;BME280;963;42.644;23.336;2023-06-24T12:15:36;94088.94;;;29.83;47.35
1472;BME280;963;42.644;23.336;2023-06-24T12:18:02;94095.53;;;30.08;47.75
1472;BME280;963;42.644;23.336;2023-06-24T12:20:29;94098.78;;;30.12;47.83
1472;BME280;963;42.644;23.336;2023-06-24T12:22:55;94085.91;;;30.07;48.40
1472;BME280;963;42.644;23.336;2023-06-24T12:25:20;94090.63;;;30.12;48.03
1472;BME280;963;42.644;23.336;2023-06-24T12:27:46;94097.59;;;30.18;47.86
1472;BME280;963;42.644;23.336;2023-06-24T12:30:13;94086.50;;;30.22;47.34
1472;BME280;963;42.644;23.336;2023-06-24T12:32:39;94101.34;;;29.95;47.83
1472;BME280;963;42.644;23.336;2023-06-24T12:35:05;94098.56;;;29.52;48.96
1472;BME280;963;42.644;23.336;2023-06-24T12:37:32;94086.31;;;29.63;48.31
1472;BME280;963;42.644;23.336;2023-06-24T12:39:59;94094.69;;;29.65;48.40
1472;BME280;963;42.644;23.336;2023-06-24T12:42:25;94109.94;;;29.56;49.95
1472;BME280;963;42.644;23.336;2023-06-24T12:44:51;94133.00;;;29.46;50.32
1472;BME280;963;42.644;23.336;2023-06-24T12:47:16;94133.50;;;29.24;51.66
1472;BME280;963;42.644;23.336;2023-06-24T12:49:43;94145.88;;;29.31;51.67
1472;BME280;963;42.644;23.336;2023-06-24T12:52:08;94145.78;;;29.20;51.05
1472;BME280;963;42.644;23.336;2023-06-24T12:54:33;94150.88;;;29.12;50.61
1472;BME280;963;42.644;23.336;2023-06-24T12:57:00;94153.78;;;29.09;51.34
1472;BME280;963;42.644;23.336;2023-06-24T12:59:26;94167.06;;;29.07;51.57
1472;BME280;963;42.644;23.336;2023-06-24T13:01:52;94165.06;;;29.02;50.28
1472;BME280;963;42.644;23.336;2023-06-24T13:04:17;94163.16;;;28.87;51.14
1472;BME280;963;42.644;23.336;2023-06-24T13:06:45;94154.16;;;28.61;51.67
1472;BME280;963;42.644;23.336;2023-06-24T13:09:10;94147.94;;;28.55;51.84
1472;BME280;963;42.644;23.336;2023-06-24T13:11:36;94138.50;;;28.65;51.67
1472;BME280;963;42.644;23.336;2023-06-24T13:14:02;94120.25;;;28.45;53.19
1472;BME280;963;42.644;23.336;2023-06-24T13:16:28;94103.34;;;28.50;53.32
1472;BME280;963;42.644;23.336;2023-06-24T13:18:53;94110.72;;;28.50;53.44
1472;BME280;963;42.644;23.336;2023-06-24T13:21:19;94127.84;;;28.41;54.05
1472;BME280;963;42.644;23.336;2023-06-24T13:23:44;94107.53;;;28.51;54.10
1472;BME280;963;42.644;23.336;2023-06-24T13:26:11;94094.47;;;28.50;54.46
1472;BME280;963;42.644;23.336;2023-06-24T13:28:37;94124.53;;;28.52;55.13
1472;BME280;963;42.644;23.336;2023-06-24T13:31:03;94123.56;;;28.55;53.91
1472;BME280;963;42.644;23.336;2023-06-24T13:33:28;94176.75;;;28.58;52.10
1472;BME280;963;42.644;23.336;2023-06-24T13:35:55;94181.88;;;28.36;55.38
1472;BME280;963;42.644;23.336;2023-06-24T13:38:21;94210.63;;;28.18;56.42
1472;BME280;963;42.644;23.336;2023-06-24T13:40:46;94239.34;;;28.16;55.90
1472;BME280;963;42.644;23.336;2023-06-24T13:43:11;94246.81;;;27.77;53.56
1472;BME280;963;42.644;23.336;2023-06-24T13:45:37;94265.25;;;27.63;53.52